Time;durP1;ratioP1;P1;durP2;ratioP2;P2;SDS_P1;SDS_P2;PMS_P1;PMS_P2;Temp;Humidity;BMP_temperature;BMP_pressure;BME280_temperature;BME280_humidity;BME280_pressure;Samples;Min_cycle;Max_cycle;Signal;HPM_P1;HPM_P2
2020/12/18 00:01:10;;;;;;;19.23;11.82;;;6.90;99.90;;;;;;5032345;28;20047;-60
2020/12/18 00:03:36;;;;;;;16.08;12.20;;;7.00;99.90;;;;;;5032913;28;20030;-61
2020/12/18 00:06:02;;;;;;;17.95;12.25;;;6.90;99.90;;;;;;5033275;28;20030;-60
2020/12/18 00:08:28;;;;;;;25.48;13.73;;;6.90;99.90;;;;;;5032990;28;20075;-61
2020/12/18 00:10:53;;;;;;;17.02;12.18;;;7.00;99.90;;;;;;5033171;28;20360;-59
2020/12/18 00:13:19;;;;;;;19.50;11.98;;;6.90;99.90;;;;;;5014639;28;20094;-60
2020/12/18 00:15:45;;;;;;;17.13;12.10;;;7.00;99.90;;;;;;5033087;28;20423;-60
2020/12/18 00:18:10;;;;;;;17.88;11.75;;;6.90;99.90;;;;;;5032661;28;20021;-61
2020/12/18 00:20:36;;;;;;;18.60;13.43;;;6.90;99.90;;;;;;5015347;28;20112;-59
2020/12/18 00:23:01;;;;;;;18.80;12.65;;;6.90;99.90;;;;;;5032678;28;20037;-59
2020/12/18 00:25:27;;;;;;;24.85;13.45;;;6.90;99.90;;;;;;5031952;28;20033;-61
2020/12/18 00:27:53;;;;;;;19.70;13.38;;;6.80;99.90;;;;;;5034556;28;20037;-60
2020/12/18 00:30:21;;;;;;;18.42;12.90;;;6.80;99.90;;;;;;5033258;28;20421;-60
2020/12/18 00:32:47;;;;;;;21.23;13.45;;;6.80;99.90;;;;;;5033631;28;20561;-60
2020/12/18 00:35:13;;;;;;;20.23;12.27;;;6.80;99.90;;;;;;5033481;28;20049;-59
2020/12/18 00:37:39;;;;;;;20.55;12.98;;;6.80;99.90;;;;;;5033643;28;20032;-61
2020/12/18 00:40:08;;;;;;;16.15;10.73;;;6.70;99.90;;;;;;5016110;28;20144;-74
2020/12/18 00:42:34;;;;;;;19.65;13.07;;;6.70;99.90;;;;;;5034001;28;20471;-65
2020/12/18 00:44:59;;;;;;;15.43;12.30;;;6.70;99.90;;;;;;5016578;28;20087;-61
2020/12/18 00:47:25;;;;;;;16.60;12.52;;;6.70;99.90;;;;;;5032893;28;20030;-64
2020/12/18 00:49:51;;;;;;;18.90;11.93;;;6.80;99.90;;;;;;5033204;28;20030;-60
2020/12/18 00:52:17;;;;;;;17.38;11.82;;;6.60;99.90;;;;;;5032491;28;20036;-59
2020/12/18 00:54:42;;;;;;;17.52;11.15;;;6.60;99.90;;;;;;5033104;28;20033;-64
2020/12/18 00:57:08;;;;;;;16.20;11.40;;;6.60;99.90;;;;;;5032554;28;20026;-60
2020/12/18 00:59:34;;;;;;;20.63;12.18;;;6.70;99.90;;;;;;5032541;28;20068;-59
2020/12/18 01:02:00;;;;;;;14.60;10.95;;;6.70;99.90;;;;;;5033926;28;20489;-61
2020/12/18 01:04:26;;;;;;;18.10;11.07;;;6.70;99.90;;;;;;5031714;28;20628;-60
2020/12/18 01:06:55;;;;;;;17.60;12.45;;;6.70;99.90;;;;;;5014879;28;20617;-61
2020/12/18 01:09:24;;;;;;;12.25;10.35;;;6.60;99.90;;;;;;5014994;28;20045;-61
2020/12/18 01:11:51;;;;;;;17.17;12.07;;;6.70;99.90;;;;;;5036102;28;20029;-60
2020/12/18 01:14:18;;;;;;;15.98;12.50;;;6.70;99.90;;;;;;5036243;28;20025;-59
2020/12/18 01:16:50;;;;;;;17.45;11.55;;;6.60;99.90;;;;;;5036686;28;20067;-59
2020/12/18 01:19:15;;;;;;;14.60;11.20;;;6.60;99.90;;;;;;5035840;28;20026;-61
2020/12/18 01:21:41;;;;;;;15.38;10.77;;;6.80;99.90;;;;;;5036363;28;20025;-59
2020/12/18 01:24:07;;;;;;;15.75;11.35;;;6.80;99.90;;;;;;5036574;28;20033;-72
2020/12/18 01:26:33;;;;;;;13.35;10.95;;;6.60;99.90;;;;;;5018622;28;20084;-61
2020/12/18 01:28:58;;;;;;;16.33;10.70;;;6.60;99.90;;;;;;5018243;28;20422;-60
2020/12/18 01:31:24;;;;;;;14.43;11.20;;;6.60;99.90;;;;;;5035419;28;20035;-60
2020/12/18 01:33:51;;;;;;;15.63;11.65;;;6.60;99.90;;;;;;5017948;28;20030;-59
2020/12/18 01:36:18;;;;;;;20.63;12.85;;;6.50;99.90;;;;;;5035086;28;20025;-60
2020/12/18 01:38:44;;;;;;;20.45;11.10;;;6.60;99.90;;;;;;5035245;28;20104;-60
2020/12/18 01:41:10;;;;;;;16.70;11.45;;;6.50;99.90;;;;;;5034770;28;20428;-61
2020/12/18 01:43:36;;;;;;;18.13;11.98;;;6.60;99.90;;;;;;5017786;28;20060;-60
2020/12/18 01:46:09;;;;;;;16.67;11.65;;;6.60;99.90;;;;;;5035858;28;20032;-61
2020/12/18 01:48:35;;;;;;;16.83;11.25;;;6.70;99.90;;;;;;5036051;28;20053;-60
2020/12/18 01:51:01;;;;;;;17.60;12.60;;;6.70;99.90;;;;;;5036128;28;20073;-60
2020/12/18 01:53:29;;;;;;;18.35;12.20;;;6.60;99.90;;;;;;5017924;28;20033;-58
2020/12/18 01:55:56;;;;;;;14.85;11.90;;;6.60;99.90;;;;;;5002522;28;20033;-60
2020/12/18 01:58:23;;;;;;;13.45;11.18;;;6.80;99.90;;;;;;5018667;28;20407;-61
2020/12/18 02:00:50;;;;;;;17.38;11.88;;;6.80;99.90;;;;;;5035691;28;20132;-60
2020/12/18 02:03:16;;;;;;;16.42;10.95;;;6.80;99.90;;;;;;5034849;28;20506;-60
2020/12/18 02:05:41;;;;;;;14.98;11.23;;;6.80;99.90;;;;;;5035266;28;20145;-60
2020/12/18 02:08:07;;;;;;;14.93;11.32;;;6.80;99.90;;;;;;5017318;28;20164;-60
2020/12/18 02:10:33;;;;;;;15.88;11.52;;;6.80;99.90;;;;;;5034630;28;20112;-61
2020/12/18 02:12:59;;;;;;;18.50;11.25;;;6.70;99.90;;;;;;5035103;28;20036;-60
2020/12/18 02:15:26;;;;;;;16.02;12.07;;;6.80;99.90;;;;;;5035658;28;20044;-60
2020/12/18 02:17:52;;;;;;;17.00;12.30;;;6.70;99.90;;;;;;5018167;28;20025;-60
2020/12/18 02:20:18;;;;;;;15.35;11.40;;;6.70;99.90;;;;;;5035051;28;20034;-59
2020/12/18 02:22:44;;;;;;;16.63;11.18;;;6.70;99.90;;;;;;5017150;28;20033;-60
2020/12/18 02:25:11;;;;;;;16.42;11.68;;;6.80;99.90;;;;;;5001181;28;20022;-61
2020/12/18 02:27:39;;;;;;;21.20;12.77;;;6.80;99.90;;;;;;5016951;28;20076;-60
2020/12/18 02:30:07;;;;;;;18.98;11.32;;;6.70;99.90;;;;;;5034777;28;20033;-59
2020/12/18 02:32:33;;;;;;;17.67;13.05;;;6.70;99.90;;;;;;5034101;28;20060;-59
2020/12/18 02:34:58;;;;;;;17.48;11.10;;;6.60;99.90;;;;;;5034791;28;20056;-60
2020/12/18 02:37:24;;;;;;;16.10;11.88;;;6.70;99.90;;;;;;5016270;28;20443;-60
2020/12/18 02:39:58;;;;;;;16.10;12.38;;;6.70;99.90;;;;;;5034212;28;20370;-59
2020/12/18 02:42:24;;;;;;;17.30;11.32;;;6.50;99.90;;;;;;5033662;28;20044;-59
2020/12/18 02:44:50;;;;;;;19.80;12.85;;;6.70;99.90;;;;;;5034472;28;20025;-60
2020/12/18 02:47:16;;;;;;;19.80;12.02;;;6.60;99.90;;;;;;5033637;28;20072;-59
2020/12/18 02:49:41;;;;;;;15.77;11.18;;;6.60;99.90;;;;;;5034205;28;20033;-59
2020/12/18 02:52:07;;;;;;;16.15;11.50;;;6.50;99.90;;;;;;5033943;28;20121;-59
2020/12/18 02:54:33;;;;;;;17.98;11.23;;;6.50;99.90;;;;;;5033367;28;20079;-59
2020/12/18 02:56:59;;;;;;;18.30;11.45;;;6.50;99.90;;;;;;5016067;28;20463;-59
2020/12/18 02:59:24;;;;;;;17.92;11.48;;;6.40;99.90;;;;;;5033228;28;20458;-60
2020/12/18 03:01:50;;;;;;;17.40;11.38;;;6.40;99.90;;;;;;5034160;28;20037;-59
2020/12/18 03:04:15;;;;;;;15.68;12.10;;;6.40;99.90;;;;;;5033523;28;20053;-62
2020/12/18 03:06:41;;;;;;;14.90;11.48;;;6.40;99.90;;;;;;5034424;28;20033;-59
2020/12/18 03:09:07;;;;;;;18.10;12.10;;;6.50;99.90;;;;;;5016871;28;20075;-59
2020/12/18 03:11:32;;;;;;;16.27;11.45;;;6.60;99.90;;;;;;5033557;28;20542;-60
2020/12/18 03:13:58;;;;;;;16.92;11.68;;;6.50;99.90;;;;;;5034160;28;20034;-59
2020/12/18 03:16:23;;;;;;;15.27;11.10;;;6.60;99.90;;;;;;5033167;28;20053;-59
2020/12/18 03:18:49;;;;;;;24.63;11.57;;;6.60;99.90;;;;;;5033172;28;20026;-59
2020/12/18 03:21:15;;;;;;;24.13;13.88;;;6.70;99.90;;;;;;5033215;28;20080;-62
2020/12/18 03:23:40;;;;;;;20.15;12.82;;;6.80;99.90;;;;;;5016003;28;20029;-59
2020/12/18 03:26:06;;;;;;;25.52;14.75;;;6.90;99.90;;;;;;5033506;28;20355;-63
2020/12/18 03:28:31;;;;;;;27.63;14.60;;;6.90;99.90;;;;;;5033726;28;20029;-59
2020/12/18 03:30:57;;;;;;;27.38;15.82;;;6.90;99.90;;;;;;5034987;28;20098;-59
2020/12/18 03:33:23;;;;;;;32.47;16.90;;;6.80;99.90;;;;;;5033008;28;20037;-59
2020/12/18 03:35:49;;;;;;;43.78;17.40;;;6.70;99.90;;;;;;5034254;28;20029;-59
2020/12/18 03:38:15;;;;;;;34.83;18.38;;;6.80;99.90;;;;;;5032756;28;20035;-73
2020/12/18 03:40:41;;;;;;;35.20;19.35;;;6.80;99.90;;;;;;5016327;28;20390;-66
2020/12/18 03:43:06;;;;;;;42.25;18.88;;;6.70;99.90;;;;;;5033942;28;20030;-59
2020/12/18 03:45:32;;;;;;;38.20;18.92;;;6.60;99.90;;;;;;5033785;28;20037;-60
2020/12/18 03:47:58;;;;;;;34.17;19.05;;;6.70;99.90;;;;;;5034493;28;20017;-59
2020/12/18 03:50:23;;;;;;;38.28;20.35;;;6.70;99.90;;;;;;5034626;28;20108;-61
2020/12/18 03:52:49;;;;;;;33.92;18.70;;;6.80;99.90;;;;;;5034265;28;20100;-59
2020/12/18 03:55:15;;;;;;;35.00;19.00;;;6.70;99.90;;;;;;5033586;28;20021;-60
2020/12/18 03:57:41;;;;;;;41.55;20.10;;;6.60;99.90;;;;;;5033290;28;20017;-59
2020/12/18 04:00:07;;;;;;;43.30;20.85;;;6.60;99.90;;;;;;5033616;28;20447;-60
2020/12/18 04:02:33;;;;;;;50.28;20.15;;;6.50;99.90;;;;;;5015772;28;20037;-60
2020/12/18 04:04:59;;;;;;;58.33;21.02;;;6.50;99.90;;;;;;5033885;28;20060;-60
2020/12/18 04:07:24;;;;;;;43.20;20.88;;;6.50;99.90;;;;;;5016225;28;20383;-59
2020/12/18 04:09:50;;;;;;;54.40;20.67;;;6.40;99.90;;;;;;5033797;28;20030;-59
2020/12/18 04:12:16;;;;;;;51.72;22.73;;;6.40;99.90;;;;;;5034127;28;20018;-60
2020/12/18 04:14:41;;;;;;;46.95;21.42;;;6.50;99.90;;;;;;5033255;28;20022;-60
2020/12/18 04:17:07;;;;;;;55.53;22.75;;;6.40;99.90;;;;;;5000039;28;20028;-64
2020/12/18 04:19:33;;;;;;;40.83;22.05;;;6.50;99.90;;;;;;5034201;28;20033;-61
2020/12/18 04:21:59;;;;;;;58.05;23.58;;;6.50;99.90;;;;;;5036028;28;20033;-60
2020/12/18 04:24:25;;;;;;;44.80;22.83;;;6.50;99.90;;;;;;5018080;28;20101;-62
2020/12/18 04:26:51;;;;;;;48.22;22.20;;;6.40;99.90;;;;;;5017740;28;20490;-60
2020/12/18 04:29:18;;;;;;;50.08;22.10;;;6.40;99.90;;;;;;5035892;28;20022;-60
2020/12/18 04:31:44;;;;;;;58.05;23.00;;;6.40;99.90;;;;;;5001591;28;20075;-60
2020/12/18 04:34:10;;;;;;;45.47;20.55;;;6.40;99.90;;;;;;5034966;28;20033;-67
2020/12/18 04:36:35;;;;;;;54.08;23.67;;;6.30;99.90;;;;;;5033325;28;20032;-60
2020/12/18 04:39:02;;;;;;;45.47;21.75;;;6.30;99.90;;;;;;5033071;28;20030;-61
2020/12/18 04:41:28;;;;;;;76.50;25.05;;;6.40;99.90;;;;;;4991199;28;20404;-61
2020/12/18 04:43:55;;;;;;;59.53;24.08;;;6.30;99.90;;;;;;4976410;28;20037;-59
2020/12/18 04:46:22;;;;;;;50.53;22.13;;;6.30;99.90;;;;;;4996363;28;20057;-60
2020/12/18 04:48:49;;;;;;;49.70;23.85;;;6.30;99.90;;;;;;4995976;28;20050;-61
2020/12/18 04:51:20;;;;;;;91.20;23.55;;;6.40;99.90;;;;;;4995124;28;20069;-59
2020/12/18 04:53:51;;;;;;;37.13;23.50;;;6.40;99.90;;;;;;4979115;28;20055;-59
2020/12/18 04:56:24;;;;;;;41.42;23.17;;;6.40;99.90;;;;;;4994824;28;20057;-59
2020/12/18 04:58:54;;;;;;;47.47;23.85;;;6.50;99.90;;;;;;4978752;28;20121;-59
2020/12/18 05:01:25;;;;;;;38.60;21.05;;;6.50;99.90;;;;;;4995275;28;20064;-73
2020/12/18 05:03:51;;;;;;;41.08;23.10;;;6.50;99.90;;;;;;4996218;28;20436;-60
2020/12/18 05:06:17;;;;;;;39.95;21.65;;;6.60;99.90;;;;;;4996101;28;20038;-59
2020/12/18 05:08:43;;;;;;;39.83;22.83;;;6.60;99.90;;;;;;4994884;28;20034;-59
2020/12/18 05:11:16;;;;;;;41.67;22.50;;;6.70;99.90;;;;;;4995036;28;20038;-62
2020/12/18 05:13:42;;;;;;;40.33;20.75;;;6.70;99.90;;;;;;5014639;28;20068;-59
2020/12/18 05:16:07;;;;;;;37.17;21.90;;;6.70;99.90;;;;;;5016444;28;20030;-59
2020/12/18 05:18:33;;;;;;;44.92;23.35;;;6.70;99.90;;;;;;5015443;28;20109;-59
2020/12/18 05:20:59;;;;;;;44.13;23.73;;;6.70;99.90;;;;;;5014696;28;20051;-58
2020/12/18 05:23:25;;;;;;;39.25;22.75;;;6.70;99.90;;;;;;5015606;28;20057;-59
2020/12/18 05:25:51;;;;;;;39.05;22.42;;;6.70;99.90;;;;;;5016532;28;20192;-60
2020/12/18 05:28:20;;;;;;;43.63;22.90;;;6.70;99.90;;;;;;5015861;28;20033;-59
2020/12/18 05:30:46;;;;;;;42.97;24.90;;;6.70;99.90;;;;;;5015419;28;20022;-59
2020/12/18 05:33:18;;;;;;;44.17;23.55;;;6.60;99.90;;;;;;5015736;28;20033;-60
2020/12/18 05:35:44;;;;;;;40.15;21.45;;;6.60;99.90;;;;;;5015136;28;20495;-60
2020/12/18 05:38:10;;;;;;;44.10;22.70;;;6.50;99.90;;;;;;5015336;28;20085;-59
2020/12/18 05:40:36;;;;;;;37.95;20.92;;;6.40;99.90;;;;;;4998805;28;20124;-62
2020/12/18 05:43:08;;;;;;;45.38;21.50;;;6.40;99.90;;;;;;5015474;28;20120;-60
2020/12/18 05:45:33;;;;;;;;;;;6.40;99.90;;;;;;5017067;28;20030;-59
2020/12/18 05:48:02;;;;;;;35.03;22.10;;;6.40;99.90;;;;;;5016813;28;19959;-60
2020/12/18 05:50:28;;;;;;;45.25;21.65;;;6.40;99.90;;;;;;5015325;28;20447;-63
2020/12/18 05:52:56;;;;;;;37.90;21.20;;;6.40;99.90;;;;;;5014824;28;20080;-60
2020/12/18 05:55:22;;;;;;;44.10;19.98;;;6.30;99.90;;;;;;5013953;28;20064;-62
2020/12/18 05:57:47;;;;;;;34.25;19.63;;;6.10;99.90;;;;;;5014794;28;20061;-60
2020/12/18 06:00:14;;;;;;;39.88;20.95;;;6.00;99.90;;;;;;5015455;28;20473;-60
2020/12/18 06:02:43;;;;;;;39.70;19.60;;;6.10;99.90;;;;;;5013921;28;20038;-61
2020/12/18 06:05:09;;;;;;;33.60;19.65;;;6.20;99.90;;;;;;5030427;28;20072;-58
2020/12/18 06:07:40;;;;;;;38.38;19.98;;;6.30;99.90;;;;;;5034468;28;20454;-60
2020/12/18 06:10:05;;;;;;;36.30;20.00;;;6.20;99.90;;;;;;5035439;28;20038;-60
2020/12/18 06:12:32;;;;;;;36.90;17.83;;;6.20;99.90;;;;;;5017749;28;20022;-60
2020/12/18 06:14:58;;;;;;;44.78;18.42;;;6.40;99.90;;;;;;5018787;28;20064;-60
2020/12/18 06:17:28;;;;;;;31.77;18.70;;;6.10;99.90;;;;;;5017458;28;20041;-62
2020/12/18 06:19:57;;;;;;;36.85;19.10;;;5.90;99.90;;;;;;5035439;28;20025;-63
2020/12/18 06:22:23;;;;;;;37.80;18.98;;;6.00;99.90;;;;;;5017624;28;20038;-60
2020/12/18 06:24:48;;;;;;;34.47;17.67;;;6.10;99.90;;;;;;5034404;28;20463;-59
2020/12/18 06:27:18;;;;;;;35.15;19.90;;;6.10;99.90;;;;;;5017163;28;20029;-61
2020/12/18 06:29:45;;;;;;;38.13;18.80;;;6.10;99.90;;;;;;5034239;28;20108;-60
2020/12/18 06:32:22;;;;;;;37.10;18.98;;;6.10;99.90;;;;;;5035189;28;20040;-61
2020/12/18 06:34:48;;;;;;;48.83;19.33;;;6.10;99.90;;;;;;5016223;28;20025;-59
2020/12/18 06:37:34;;;;;;;39.83;20.38;;;6.20;99.90;;;;;;5016772;28;20454;-60
2020/12/18 06:40:00;;;;;;;44.80;18.02;;;6.00;99.90;;;;;;5017392;28;20029;-60
2020/12/18 06:42:30;;;;;;;65.20;18.63;;;6.10;99.90;;;;;;5035210;28;20025;-74
2020/12/18 06:44:57;;;;;;;48.83;18.45;;;6.00;99.90;;;;;;5035246;28;20475;-61
2020/12/18 06:47:26;;;;;;;39.55;17.33;;;5.90;99.90;;;;;;5016749;28;20029;-60
2020/12/18 06:50:00;;;;;;;39.80;19.38;;;6.00;99.90;;;;;;5034790;28;20079;-59
2020/12/18 06:52:44;;;;;;;48.83;17.13;;;5.80;99.90;;;;;;5034777;28;20108;-61
2020/12/18 06:55:25;;;;;;;81.05;18.70;;;5.90;99.90;;;;;;5017058;28;20367;-60
2020/12/18 06:58:06;;;;;;;28.17;16.73;;;5.70;99.90;;;;;;5033712;28;20026;-61
2020/12/18 07:00:35;;;;;;;80.78;18.70;;;6.00;99.90;;;;;;5016104;28;20041;-59
2020/12/18 07:03:01;;;;;;;87.88;19.80;;;5.90;99.90;;;;;;5034113;28;20412;-61
2020/12/18 07:05:33;;;;;;;130.57;19.40;;;5.70;99.90;;;;;;5016237;28;20057;-72
2020/12/18 07:08:06;;;;;;;47.08;17.30;;;5.60;99.90;;;;;;5034239;28;20025;-61
2020/12/18 07:10:52;;;;;;;72.82;19.55;;;5.60;99.90;;;;;;5016742;28;20140;-59
2020/12/18 07:13:18;;;;;;;57.05;16.23;;;5.50;99.90;;;;;;5034505;28;20055;-65
2020/12/18 07:15:44;;;;;;;48.80;15.70;;;5.50;99.90;;;;;;5035139;28;20037;-59
2020/12/18 07:18:13;;;;;;;39.97;16.95;;;5.70;99.90;;;;;;5036655;28;20028;-64
2020/12/18 07:20:45;;;;;;;57.20;17.52;;;5.50;99.90;;;;;;5036030;28;20029;-61
2020/12/18 07:23:10;;;;;;;43.85;16.02;;;5.70;99.90;;;;;;5035925;28;20041;-61
2020/12/18 07:25:36;;;;;;;38.75;16.17;;;5.50;99.90;;;;;;5017521;28;20029;-60
2020/12/18 07:28:02;;;;;;;94.13;18.65;;;5.50;99.90;;;;;;5035233;28;20033;-63
2020/12/18 07:30:31;;;;;;;66.95;16.92;;;5.30;99.90;;;;;;5035354;28;20111;-61
2020/12/18 07:32:59;;;;;;;50.17;17.48;;;5.40;99.90;;;;;;5017209;28;20033;-62
2020/12/18 07:35:24;;;;;;;49.97;16.10;;;5.40;99.90;;;;;;5016405;28;20061;-59
2020/12/18 07:37:50;;;;;;;69.15;16.85;;;5.40;99.90;;;;;;5034403;28;20087;-60
2020/12/18 07:40:16;;;;;;;49.10;18.00;;;5.30;99.90;;;;;;5034692;28;20530;-59
2020/12/18 07:42:43;;;;;;;45.05;17.55;;;5.30;99.90;;;;;;5034392;28;20045;-61
2020/12/18 07:45:09;;;;;;;47.00;17.48;;;5.40;99.90;;;;;;5034940;28;20022;-59
2020/12/18 07:47:39;;;;;;;29.65;17.05;;;5.40;99.90;;;;;;5016228;28;20505;-59
2020/12/18 07:50:06;;;;;;;46.55;16.55;;;5.60;99.90;;;;;;5034263;28;20036;-61
2020/12/18 07:52:34;;;;;;;57.95;16.88;;;5.70;99.90;;;;;;5015888;28;20033;-66
2020/12/18 07:55:00;;;;;;;43.25;17.60;;;5.60;99.90;;;;;;5034658;28;20033;-64
2020/12/18 07:57:26;;;;;;;60.40;18.42;;;5.60;99.90;;;;;;5033977;28;20029;-59
2020/12/18 08:00:08;;;;;;;78.50;19.35;;;5.60;99.90;;;;;;5015805;28;20021;-60
2020/12/18 08:02:34;;;;;;;59.17;19.00;;;5.60;99.90;;;;;;5015419;28;20095;-73
2020/12/18 08:05:03;;;;;;;38.03;18.42;;;5.60;99.90;;;;;;5015358;28;20053;-62
2020/12/18 08:07:30;;;;;;;57.20;19.13;;;5.70;99.90;;;;;;5011350;28;20052;-60
2020/12/18 08:09:57;;;;;;;48.72;19.13;;;5.60;99.90;;;;;;4994107;28;20069;-59
2020/12/18 08:12:23;;;;;;;40.42;16.60;;;5.70;99.90;;;;;;5012762;28;20046;-60
2020/12/18 08:14:49;;;;;;;68.03;19.00;;;5.60;99.90;;;;;;5011724;28;20403;-69
2020/12/18 08:17:23;;;;;;;45.55;17.40;;;5.60;99.90;;;;;;4998613;28;20049;-61
2020/12/18 08:19:52;;;;;;;33.10;17.52;;;5.50;99.90;;;;;;5012549;28;20505;-62
2020/12/18 08:22:21;;;;;;;39.35;18.27;;;5.70;99.90;;;;;;5000079;28;20041;-61
2020/12/18 08:24:48;;;;;;;36.55;17.50;;;5.70;99.90;;;;;;5014000;28;20041;-67
2020/12/18 08:27:22;;;;;;;34.60;18.75;;;5.70;99.90;;;;;;5005695;28;20030;-60
2020/12/18 08:29:48;;;;;;;34.03;17.48;;;5.90;99.90;;;;;;5008386;28;20498;-60
2020/12/18 08:32:26;;;;;;;29.27;15.90;;;5.70;99.90;;;;;;5012938;28;20045;-60
2020/12/18 08:34:59;;;;;;;31.35;17.83;;;5.90;99.90;;;;;;5023124;28;20030;-61
2020/12/18 08:37:25;;;;;;;33.53;17.83;;;6.00;99.90;;;;;;5027154;28;20030;-59
2020/12/18 08:39:51;;;;;;;28.73;16.30;;;5.80;99.90;;;;;;5041709;28;20033;-61
2020/12/18 08:42:16;;;;;;;37.97;18.27;;;6.00;99.90;;;;;;5045593;28;20475;-61
2020/12/18 08:44:44;;;;;;;34.53;18.67;;;6.10;99.90;;;;;;5045446;28;20053;-64
2020/12/18 08:47:30;;;;;;;31.98;17.10;;;6.10;99.90;;;;;;4993579;28;20028;-61
2020/12/18 08:49:57;;;;;;;34.35;18.65;;;6.20;99.90;;;;;;5041216;28;20036;-63
2020/12/18 08:52:29;;;;;;;35.58;17.70;;;6.20;99.90;;;;;;5039950;28;20429;-62
2020/12/18 08:55:22;;;;;;;32.33;18.13;;;6.20;99.90;;;;;;5036443;28;20100;-60
2020/12/18 08:57:47;;;;;;;31.50;16.98;;;6.30;99.90;;;;;;5031392;28;20042;-63
2020/12/18 09:00:14;;;;;;;31.38;18.75;;;6.30;99.90;;;;;;5037147;28;20028;-61
2020/12/18 09:02:58;;;;;;;35.92;20.33;;;6.40;99.90;;;;;;5035847;28;20048;-61
2020/12/18 09:05:30;;;;;;;42.38;21.73;;;6.50;99.90;;;;;;5028101;28;20051;-60
2020/12/18 09:07:56;;;;;;;44.78;21.70;;;6.50;99.90;;;;;;5026970;28;20022;-62
2020/12/18 09:10:35;;;;;;;40.10;20.52;;;6.40;99.90;;;;;;5028010;28;20040;-60
2020/12/18 09:13:16;;;;;;;38.95;20.40;;;6.50;99.90;;;;;;5026349;28;20029;-60
2020/12/18 09:15:44;;;;;;;46.25;20.80;;;6.50;99.90;;;;;;5050296;28;20037;-60
2020/12/18 09:18:13;;;;;;;42.42;22.13;;;6.40;99.90;;;;;;5037020;28;20060;-60
2020/12/18 09:20:42;;;;;;;41.92;20.63;;;6.50;99.90;;;;;;5033070;28;20029;-63
2020/12/18 09:23:13;;;;;;;43.15;19.67;;;6.40;99.90;;;;;;5017754;28;20049;-60
2020/12/18 09:25:42;;;;;;;47.20;21.88;;;6.30;99.90;;;;;;5035742;28;20033;-72
2020/12/18 09:28:13;;;;;;;36.92;19.52;;;6.50;99.90;;;;;;5020202;28;20035;-60
2020/12/18 09:30:40;;;;;;;52.10;20.60;;;6.50;99.90;;;;;;5034362;28;20077;-69
2020/12/18 09:33:13;;;;;;;44.60;21.23;;;6.50;99.90;;;;;;5017600;28;20073;-60
2020/12/18 09:35:40;;;;;;;49.08;20.33;;;6.70;99.90;;;;;;5034339;28;20030;-73
2020/12/18 09:38:06;;;;;;;46.42;21.33;;;6.50;99.90;;;;;;5016784;28;20117;-59
2020/12/18 09:40:32;;;;;;;46.10;21.05;;;6.60;99.90;;;;;;5017128;28;20529;-60
2020/12/18 09:42:58;;;;;;;46.00;20.13;;;6.60;99.90;;;;;;5017070;28;20057;-61
2020/12/18 09:45:24;;;;;;;47.08;21.58;;;6.60;99.90;;;;;;5035423;28;20025;-58
2020/12/18 09:47:49;;;;;;;37.38;18.02;;;6.60;99.90;;;;;;5017243;28;20073;-58
2020/12/18 09:50:15;;;;;;;45.42;19.98;;;6.80;99.90;;;;;;5035569;28;20055;-60
2020/12/18 09:52:41;;;;;;;53.72;21.00;;;6.80;99.90;;;;;;5047403;28;20029;-70
2020/12/18 09:55:06;;;;;;;44.30;20.20;;;7.00;99.90;;;;;;5037961;28;20021;-63
2020/12/18 09:57:34;;;;;;;38.95;17.88;;;7.50;99.90;;;;;;5039663;28;20036;-60
2020/12/18 10:00:02;;;;;;;41.70;17.95;;;7.30;99.90;;;;;;5033499;28;20029;-60
2020/12/18 10:02:29;;;;;;;40.00;17.63;;;7.20;99.90;;;;;;5019577;28;20033;-60
2020/12/18 10:04:56;;;;;;;37.30;17.60;;;7.20;99.90;;;;;;5030252;28;20048;-61
2020/12/18 10:07:21;;;;;;;36.80;18.00;;;7.10;99.90;;;;;;5025894;28;20390;-60
2020/12/18 10:09:47;;;;;;;38.78;18.50;;;7.10;99.90;;;;;;5041760;28;20498;-61
2020/12/18 10:12:13;;;;;;;34.83;17.65;;;7.20;99.90;;;;;;5025052;28;20490;-59
2020/12/18 10:14:39;;;;;;;33.78;17.65;;;7.30;99.90;;;;;;5043061;28;20481;-71
2020/12/18 10:17:04;;;;;;;43.55;18.33;;;7.30;99.90;;;;;;5024966;28;20496;-61
2020/12/18 10:19:30;;;;;;;54.67;19.73;;;7.30;99.90;;;;;;5021523;28;20116;-60
2020/12/18 10:21:56;;;;;;;41.63;18.75;;;7.20;99.90;;;;;;5042610;28;20036;-58
2020/12/18 10:24:21;;;;;;;40.97;17.55;;;7.20;99.90;;;;;;5039457;28;20405;-60
2020/12/18 10:26:50;;;;;;;46.78;18.92;;;7.20;99.90;;;;;;5041308;28;20509;-60
2020/12/18 10:29:16;;;;;;;37.53;18.52;;;7.20;99.90;;;;;;5026538;28;20431;-62
2020/12/18 10:31:42;;;;;;;38.00;18.10;;;7.40;99.90;;;;;;5047053;28;20048;-67
2020/12/18 10:34:07;;;;;;;75.35;27.17;;;7.40;99.90;;;;;;5041177;28;20112;-61
2020/12/18 10:36:33;;;;;;;36.85;20.42;;;7.80;99.90;;;;;;5016756;28;20375;-63
2020/12/18 10:38:59;;;;;;;41.30;20.77;;;7.90;99.90;;;;;;5015609;28;20117;-61
2020/12/18 10:41:25;;;;;;;46.38;20.55;;;8.00;99.90;;;;;;5036420;28;20033;-62
2020/12/18 10:43:51;;;;;;;66.13;25.65;;;7.80;99.90;;;;;;5024250;28;20475;-60
2020/12/18 10:46:16;;;;;;;49.30;18.98;;;7.60;99.90;;;;;;5039068;28;20033;-59
2020/12/18 10:48:42;;;;;;;34.42;18.40;;;7.40;99.90;;;;;;5035410;28;20021;-71
2020/12/18 10:51:08;;;;;;;40.58;18.65;;;7.40;99.90;;;;;;5024198;28;20192;-60
2020/12/18 10:53:33;;;;;;;44.72;20.58;;;7.30;99.90;;;;;;5026503;28;20058;-60
2020/12/18 10:56:01;;;;;;;36.58;19.55;;;7.30;99.90;;;;;;5049416;28;20528;-61
2020/12/18 10:58:27;;;;;;;39.42;19.33;;;7.20;99.90;;;;;;5043982;28;20482;-61
2020/12/18 11:00:52;;;;;;;38.50;21.20;;;7.00;99.90;;;;;;5040829;28;20037;-60
2020/12/18 11:03:18;;;;;;;40.28;20.83;;;7.00;99.90;;;;;;5041886;28;20108;-61
2020/12/18 11:05:44;;;;;;;34.80;18.30;;;7.20;99.90;;;;;;5040349;28;20081;-71
2020/12/18 11:08:11;;;;;;;36.70;19.92;;;7.20;99.90;;;;;;5040731;28;20085;-64
2020/12/18 11:10:37;;;;;;;37.53;19.50;;;7.10;99.90;;;;;;5043268;28;20100;-60
2020/12/18 11:13:02;;;;;;;43.30;19.75;;;7.10;99.90;;;;;;5043674;28;20459;-61
2020/12/18 11:15:28;;;;;;;41.38;21.70;;;7.30;99.90;;;;;;5041780;28;20489;-62
2020/12/18 11:17:56;;;;;;;47.95;21.05;;;7.10;99.90;;;;;;5026940;28;20437;-61
2020/12/18 11:20:22;;;;;;;42.97;21.30;;;7.20;99.90;;;;;;5046454;28;20064;-59
2020/12/18 11:22:48;;;;;;;38.47;20.40;;;7.10;99.90;;;;;;5037342;28;20022;-61
2020/12/18 11:25:13;;;;;;;43.85;21.85;;;6.90;99.90;;;;;;5045909;28;20531;-63
2020/12/18 11:27:39;;;;;;;35.30;18.05;;;6.90;99.90;;;;;;5043283;28;20017;-61
2020/12/18 11:30:05;;;;;;;39.78;19.63;;;7.10;99.90;;;;;;5039995;28;20528;-66
2020/12/18 11:32:30;;;;;;;40.10;19.38;;;7.10;99.90;;;;;;5022389;28;20063;-65
2020/12/18 11:34:56;;;;;;;36.03;18.80;;;7.20;99.90;;;;;;5041059;28;20162;-61
2020/12/18 11:37:22;;;;;;;42.25;19.83;;;7.10;99.90;;;;;;5047385;28;20025;-63
2020/12/18 11:39:47;;;;;;;30.85;17.42;;;7.30;99.90;;;;;;5032949;28;20052;-60
2020/12/18 11:42:14;;;;;;;38.25;18.23;;;7.20;99.90;;;;;;5048610;28;20033;-62
2020/12/18 11:44:40;;;;;;;36.63;18.45;;;7.10;99.90;;;;;;5031733;28;20078;-63
2020/12/18 11:47:06;;;;;;;36.45;18.15;;;6.80;99.90;;;;;;5032812;28;20024;-60
2020/12/18 11:49:32;;;;;;;38.75;18.83;;;6.90;99.90;;;;;;5050555;28;20027;-60
2020/12/18 11:51:57;;;;;;;41.65;22.55;;;7.00;99.90;;;;;;5024747;28;20386;-61
2020/12/18 11:54:23;;;;;;;39.28;21.17;;;7.00;99.90;;;;;;5013517;28;20026;-60
2020/12/18 11:56:50;;;;;;;39.22;18.58;;;7.00;99.90;;;;;;5014288;28;20029;-63
2020/12/18 11:59:16;;;;;;;39.70;20.50;;;7.20;99.90;;;;;;5031742;28;20501;-62
2020/12/18 12:01:41;;;;;;;47.17;22.85;;;7.40;99.90;;;;;;5013844;28;20048;-59
2020/12/18 12:04:07;;;;;;;47.35;22.42;;;7.40;99.90;;;;;;5031275;28;20053;-62
2020/12/18 12:06:34;;;;;;;46.85;23.70;;;7.40;99.90;;;;;;5036939;28;20047;-60
2020/12/18 12:09:03;;;;;;;52.85;24.00;;;7.60;99.90;;;;;;5049325;28;20231;-61
2020/12/18 12:11:39;;;;;;;57.22;26.73;;;7.70;99.90;;;;;;5033799;28;20373;-66
2020/12/18 12:14:07;;;;;;;58.50;27.30;;;7.70;99.90;;;;;;5040840;28;20101;-61
2020/12/18 12:16:36;;;;;;;55.85;23.77;;;7.60;99.90;;;;;;5031353;28;20033;-62
2020/12/18 12:19:08;;;;;;;44.65;21.67;;;7.80;99.90;;;;;;4996818;28;20045;-60
2020/12/18 12:21:35;;;;;;;59.30;26.45;;;7.80;99.90;;;;;;5013789;28;20471;-64
2020/12/18 12:24:01;;;;;;;48.25;22.30;;;7.60;99.90;;;;;;5031187;28;20036;-63
2020/12/18 12:26:27;;;;;;;49.08;25.70;;;7.70;99.90;;;;;;5032166;28;20021;-65
2020/12/18 12:28:54;;;;;;;48.72;23.85;;;8.10;99.90;;;;;;5013694;28;20470;-63
2020/12/18 12:31:20;;;;;;;47.53;22.42;;;8.40;99.90;;;;;;5031953;28;20029;-61
2020/12/18 12:33:46;;;;;;;58.65;27.02;;;8.90;99.90;;;;;;5013628;28;20041;-74
2020/12/18 12:36:21;;;;;;;53.50;28.30;;;9.00;99.90;;;;;;5020300;28;20374;-61
2020/12/18 12:38:47;;;;;;;41.60;21.83;;;9.20;99.90;;;;;;5040347;28;20037;-70